sensor_id;sensor_type;location;lat;lon;timestamp;P1;durP1;ratioP1;P2;durP2;ratioP2
79403;SDS011;68858;48.642;9.142;2024-03-23T00:55:40;3.50;;;2.30;;
79403;SDS011;68858;48.642;9.142;2024-03-23T00:58:08;3.10;;;2.50;;
79403;SDS011;68858;48.642;9.142;2024-03-23T01:00:34;3.30;;;2.20;;
79403;SDS011;68858;48.642;9.142;2024-03-23T01:02:59;2.20;;;2.00;;
79403;SDS011;68858;48.642;9.142;2024-03-23T01:05:24;2.50;;;2.30;;
79403;SDS011;68858;48.642;9.142;2024-03-23T01:07:50;3.30;;;2.30;;
79403;SDS011;68858;48.642;9.142;2024-03-23T01:10:15;2.77;;;2.00;;
79403;SDS011;68858;48.642;9.142;2024-03-23T01:12:40;2.20;;;1.93;;
79403;SDS011;68858;48.642;9.142;2024-03-23T01:15:06;3.47;;;2.10;;
79403;SDS011;68858;48.642;9.142;2024-03-23T01:17:31;2.63;;;2.10;;
79403;SDS011;68858;48.642;9.142;2024-03-23T01:19:57;2.60;;;2.30;;
79403;SDS011;68858;48.642;9.142;2024-03-23T01:22:22;2.37;;;1.90;;
79403;SDS011;68858;48.642;9.142;2024-03-23T01:24:47;2.33;;;2.13;;
79403;SDS011;68858;48.642;9.142;2024-03-23T01:27:13;2.00;;;1.90;;
79403;SDS011;68858;48.642;9.142;2024-03-23T01:29:39;3.40;;;2.30;;
79403;SDS011;68858;48.642;9.142;2024-03-23T01:32:05;3.67;;;2.20;;
79403;SDS011;68858;48.642;9.142;2024-03-23T01:34:30;3.73;;;2.57;;
79403;SDS011;68858;48.642;9.142;2024-03-23T01:36:55;2.90;;;2.17;;
79403;SDS011;68858;48.642;9.142;2024-03-23T01:39:21;4.20;;;2.00;;
79403;SDS011;68858;48.642;9.142;2024-03-23T01:41:46;2.73;;;2.07;;
79403;SDS011;68858;48.642;9.142;2024-03-23T01:44:11;1.87;;;1.77;;
79403;SDS011;68858;48.642;9.142;2024-03-23T01:46:37;3.67;;;2.20;;
79403;SDS011;68858;48.642;9.142;2024-03-23T01:49:03;2.83;;;2.03;;
79403;SDS011;68858;48.642;9.142;2024-03-23T01:51:29;2.30;;;2.10;;
79403;SDS011;68858;48.642;9.142;2024-03-23T01:53:55;2.70;;;2.17;;
79403;SDS011;68858;48.642;9.142;2024-03-23T01:56:21;3.97;;;2.30;;
79403;SDS011;68858;48.642;9.142;2024-03-23T01:58:46;2.50;;;2.30;;
79403;SDS011;68858;48.642;9.142;2024-03-23T02:01:12;3.00;;;2.00;;
79403;SDS011;68858;48.642;9.142;2024-03-23T02:03:37;2.50;;;2.10;;
79403;SDS011;68858;48.642;9.142;2024-03-23T02:06:02;2.73;;;1.90;;
79403;SDS011;68858;48.642;9.142;2024-03-23T02:08:28;3.17;;;2.10;;
79403;SDS011;68858;48.642;9.142;2024-03-23T02:10:55;2.70;;;2.30;;
79403;SDS011;68858;48.642;9.142;2024-03-23T02:13:20;2.73;;;2.17;;
79403;SDS011;68858;48.642;9.142;2024-03-23T02:15:45;2.90;;;1.93;;
79403;SDS011;68858;48.642;9.142;2024-03-23T02:18:11;2.63;;;2.17;;
79403;SDS011;68858;48.642;9.142;2024-03-23T02:20:36;2.60;;;2.30;;
79403;SDS011;68858;48.642;9.142;2024-03-23T02:23:02;2.60;;;2.40;;
79403;SDS011;68858;48.642;9.142;2024-03-23T02:25:28;3.13;;;2.20;;
79403;SDS011;68858;48.642;9.142;2024-03-23T02:27:53;5.07;;;2.33;;
79403;SDS011;68858;48.642;9.142;2024-03-23T02:30:19;4.67;;;2.33;;
79403;SDS011;68858;48.642;9.142;2024-03-23T02:32:45;2.40;;;2.20;;
79403;SDS011;68858;48.642;9.142;2024-03-23T02:35:11;3.27;;;2.10;;
79403;SDS011;68858;48.642;9.142;2024-03-23T02:37:36;2.80;;;2.60;;
79403;SDS011;68858;48.642;9.142;2024-03-23T02:40:01;2.97;;;2.37;;
79403;SDS011;68858;48.642;9.142;2024-03-23T02:42:27;2.30;;;2.10;;
79403;SDS011;68858;48.642;9.142;2024-03-23T02:44:52;3.27;;;2.27;;
79403;SDS011;68858;48.642;9.142;2024-03-23T02:47:17;4.07;;;2.40;;
79403;SDS011;68858;48.642;9.142;2024-03-23T02:49:43;3.60;;;1.93;;
79403;SDS011;68858;48.642;9.142;2024-03-23T02:52:08;2.97;;;2.17;;
79403;SDS011;68858;48.642;9.142;2024-03-23T02:54:33;3.77;;;2.40;;
79403;SDS011;68858;48.642;9.142;2024-03-23T02:56:59;3.93;;;2.53;;
79403;SDS011;68858;48.642;9.142;2024-03-23T02:59:24;2.77;;;2.23;;
79403;SDS011;68858;48.642;9.142;2024-03-23T03:01:49;2.77;;;2.50;;
79403;SDS011;68858;48.642;9.142;2024-03-23T03:04:15;2.47;;;2.13;;
79403;SDS011;68858;48.642;9.142;2024-03-23T03:06:40;2.73;;;2.20;;
79403;SDS011;68858;48.642;9.142;2024-03-23T03:09:06;2.30;;;2.10;;
79403;SDS011;68858;48.642;9.142;2024-03-23T03:11:31;2.87;;;2.03;;
79403;SDS011;68858;48.642;9.142;2024-03-23T03:13:56;2.27;;;1.80;;
79403;SDS011;68858;48.642;9.142;2024-03-23T03:16:22;3.23;;;2.43;;
79403;SDS011;68858;48.642;9.142;2024-03-23T03:18:47;2.73;;;2.33;;
79403;SDS011;68858;48.642;9.142;2024-03-23T03:21:12;2.67;;;2.20;;
79403;SDS011;68858;48.642;9.142;2024-03-23T03:23:38;3.57;;;2.10;;
79403;SDS011;68858;48.642;9.142;2024-03-23T03:26:04;2.63;;;2.00;;
79403;SDS011;68858;48.642;9.142;2024-03-23T03:28:30;3.10;;;2.10;;
79403;SDS011;68858;48.642;9.142;2024-03-23T03:30:57;2.23;;;2.00;;
79403;SDS011;68858;48.642;9.142;2024-03-23T03:33:23;2.37;;;1.90;;
79403;SDS011;68858;48.642;9.142;2024-03-23T03:35:48;3.33;;;2.10;;
79403;SDS011;68858;48.642;9.142;2024-03-23T03:38:13;3.10;;;2.13;;
79403;SDS011;68858;48.642;9.142;2024-03-23T03:40:39;3.13;;;2.00;;
79403;SDS011;68858;48.642;9.142;2024-03-23T03:43:04;2.93;;;1.93;;
79403;SDS011;68858;48.642;9.142;2024-03-23T03:45:30;2.20;;;2.10;;
79403;SDS011;68858;48.642;9.142;2024-03-23T03:47:55;2.90;;;2.37;;
79403;SDS011;68858;48.642;9.142;2024-03-23T03:50:21;2.37;;;2.20;;
79403;SDS011;68858;48.642;9.142;2024-03-23T03:52:47;2.27;;;2.07;;
79403;SDS011;68858;48.642;9.142;2024-03-23T03:55:13;2.03;;;1.83;;
79403;SDS011;68858;48.642;9.142;2024-03-23T03:57:39;2.93;;;2.20;;
79403;SDS011;68858;48.642;9.142;2024-03-23T04:00:05;3.00;;;2.40;;
79403;SDS011;68858;48.642;9.142;2024-03-23T04:02:31;2.30;;;2.10;;
79403;SDS011;68858;48.642;9.142;2024-03-23T04:04:56;3.83;;;2.50;;
79403;SDS011;68858;48.642;9.142;2024-03-23T04:07:22;3.50;;;2.30;;
79403;SDS011;68858;48.642;9.142;2024-03-23T04:09:48;2.97;;;2.53;;
79403;SDS011;68858;48.642;9.142;2024-03-23T04:12:13;2.97;;;2.33;;
79403;SDS011;68858;48.642;9.142;2024-03-23T04:14:39;2.50;;;2.30;;
79403;SDS011;68858;48.642;9.142;2024-03-23T04:17:04;2.53;;;2.33;;
79403;SDS011;68858;48.642;9.142;2024-03-23T04:19:29;3.93;;;2.17;;
79403;SDS011;68858;48.642;9.142;2024-03-23T04:21:55;3.83;;;2.30;;
79403;SDS011;68858;48.642;9.142;2024-03-23T04:24:20;2.93;;;2.00;;
79403;SDS011;68858;48.642;9.142;2024-03-23T04:26:47;2.67;;;2.13;;
79403;SDS011;68858;48.642;9.142;2024-03-23T04:29:12;3.77;;;2.40;;
79403;SDS011;68858;48.642;9.142;2024-03-23T04:31:38;3.27;;;2.33;;
79403;SDS011;68858;48.642;9.142;2024-03-23T04:34:03;4.03;;;2.33;;
79403;SDS011;68858;48.642;9.142;2024-03-23T04:36:29;2.77;;;2.27;;
79403;SDS011;68858;48.642;9.142;2024-03-23T04:38:54;3.70;;;2.67;;
79403;SDS011;68858;48.642;9.142;2024-03-23T04:41:19;4.17;;;2.60;;
79403;SDS011;68858;48.642;9.142;2024-03-23T04:43:45;2.40;;;2.20;;
79403;SDS011;68858;48.642;9.142;2024-03-23T04:46:10;4.07;;;2.20;;
79403;SDS011;68858;48.642;9.142;2024-03-23T04:48:35;3.93;;;2.20;;
79403;SDS011;68858;48.642;9.142;2024-03-23T04:51:01;3.17;;;2.20;;
79403;SDS011;68858;48.642;9.142;2024-03-23T04:53:26;2.73;;;2.37;;
79403;SDS011;68858;48.642;9.142;2024-03-23T04:55:55;4.07;;;2.60;;
79403;SDS011;68858;48.642;9.142;2024-03-23T04:58:21;2.63;;;2.43;;
79403;SDS011;68858;48.642;9.142;2024-03-23T05:00:53;3.20;;;2.90;;
79403;SDS011;68858;48.642;9.142;2024-03-23T05:03:19;4.60;;;2.93;;
79403;SDS011;68858;48.642;9.142;2024-03-23T05:05:46;3.50;;;3.20;;
79403;SDS011;68858;48.642;9.142;2024-03-23T05:08:11;4.90;;;3.57;;
79403;SDS011;68858;48.642;9.142;2024-03-23T05:10:37;4.07;;;3.67;;
79403;SDS011;68858;48.642;9.142;2024-03-23T05:13:03;4.87;;;4.33;;
79403;SDS011;68858;48.642;9.142;2024-03-23T05:15:28;6.43;;;4.67;;
79403;SDS011;68858;48.642;9.142;2024-03-23T05:17:54;5.40;;;4.90;;
79403;SDS011;68858;48.642;9.142;2024-03-23T05:20:20;6.10;;;5.50;;
79403;SDS011;68858;48.642;9.142;2024-03-23T05:22:45;5.80;;;5.20;;
79403;SDS011;68858;48.642;9.142;2024-03-23T05:25:11;6.00;;;5.33;;
79403;SDS011;68858;48.642;9.142;2024-03-23T05:27:37;8.63;;;6.27;;
79403;SDS011;68858;48.642;9.142;2024-03-23T05:30:02;6.43;;;5.80;;
79403;SDS011;68858;48.642;9.142;2024-03-23T05:32:29;6.93;;;6.33;;
79403;SDS011;68858;48.642;9.142;2024-03-23T05:34:54;8.40;;;6.67;;
79403;SDS011;68858;48.642;9.142;2024-03-23T05:37:22;6.90;;;6.27;;
79403;SDS011;68858;48.642;9.142;2024-03-23T05:39:48;8.57;;;6.70;;
79403;SDS011;68858;48.642;9.142;2024-03-23T05:42:15;10.13;;;7.50;;
79403;SDS011;68858;48.642;9.142;2024-03-23T05:44:44;8.27;;;7.47;;
79403;SDS011;68858;48.642;9.142;2024-03-23T05:47:10;9.00;;;8.20;;
79403;SDS011;68858;48.642;9.142;2024-03-23T05:49:35;9.10;;;8.20;;
79403;SDS011;68858;48.642;9.142;2024-03-23T05:52:01;8.67;;;7.80;;
79403;SDS011;68858;48.642;9.142;2024-03-23T05:54:28;9.30;;;8.43;;
79403;SDS011;68858;48.642;9.142;2024-03-23T05:56:54;8.90;;;8.00;;
79403;SDS011;68858;48.642;9.142;2024-03-23T05:59:20;9.30;;;8.40;;
79403;SDS011;68858;48.642;9.142;2024-03-23T06:01:46;10.57;;;8.83;;
79403;SDS011;68858;48.642;9.142;2024-03-23T06:04:12;9.83;;;8.67;;
79403;SDS011;68858;48.642;9.142;2024-03-23T06:06:39;10.33;;;9.03;;
79403;SDS011;68858;48.642;9.142;2024-03-23T06:09:04;10.00;;;9.10;;
79403;SDS011;68858;48.642;9.142;2024-03-23T06:11:30;10.03;;;9.03;;
79403;SDS011;68858;48.642;9.142;2024-03-23T06:13:55;8.70;;;7.90;;
79403;SDS011;68858;48.642;9.142;2024-03-23T06:16:21;9.00;;;7.80;;
79403;SDS011;68858;48.642;9.142;2024-03-23T06:18:49;7.37;;;6.67;;
79403;SDS011;68858;48.642;9.142;2024-03-23T06:21:15;5.90;;;5.40;;
79403;SDS011;68858;48.642;9.142;2024-03-23T06:23:41;5.30;;;4.77;;
79403;SDS011;68858;48.642;9.142;2024-03-23T06:26:15;5.00;;;4.50;;
79403;SDS011;68858;48.642;9.142;2024-03-23T06:28:41;5.23;;;4.73;;
79403;SDS011;68858;48.642;9.142;2024-03-23T06:31:08;3.30;;;3.00;;
79403;SDS011;68858;48.642;9.142;2024-03-23T06:33:34;2.60;;;2.20;;
79403;SDS011;68858;48.642;9.142;2024-03-23T06:35:59;2.53;;;2.33;;
79403;SDS011;68858;48.642;9.142;2024-03-23T06:38:25;2.13;;;1.90;;
79403;SDS011;68858;48.642;9.142;2024-03-23T06:40:50;1.80;;;1.70;;
79403;SDS011;68858;48.642;9.142;2024-03-23T06:43:17;1.50;;;1.40;;
79403;SDS011;68858;48.642;9.142;2024-03-23T06:45:43;1.50;;;1.30;;
79403;SDS011;68858;48.642;9.142;2024-03-23T06:48:08;1.10;;;1.00;;
79403;SDS011;68858;48.642;9.142;2024-03-23T06:50:34;1.10;;;1.00;;
79403;SDS011;68858;48.642;9.142;2024-03-23T06:52:59;2.10;;;1.00;;
79403;SDS011;68858;48.642;9.142;2024-03-23T06:55:26;1.50;;;1.20;;
79403;SDS011;68858;48.642;9.142;2024-03-23T06:57:52;1.43;;;1.30;;
79403;SDS011;68858;48.642;9.142;2024-03-23T07:00:18;1.33;;;1.23;;
79403;SDS011;68858;48.642;9.142;2024-03-23T07:02:43;1.30;;;1.20;;
79403;SDS011;68858;48.642;9.142;2024-03-23T07:05:11;4.20;;;3.27;;
79403;SDS011;68858;48.642;9.142;2024-03-23T07:07:37;1.83;;;1.53;;
79403;SDS011;68858;48.642;9.142;2024-03-23T07:10:04;1.20;;;1.10;;
79403;SDS011;68858;48.642;9.142;2024-03-23T07:12:30;1.43;;;1.33;;
79403;SDS011;68858;48.642;9.142;2024-03-23T07:14:55;1.50;;;1.40;;
79403;SDS011;68858;48.642;9.142;2024-03-23T07:17:20;1.30;;;1.20;;
79403;SDS011;68858;48.642;9.142;2024-03-23T07:19:46;0.77;;;0.77;;
79403;SDS011;68858;48.642;9.142;2024-03-23T07:22:11;0.53;;;0.53;;
79403;SDS011;68858;48.642;9.142;2024-03-23T07:24:36;0.80;;;0.80;;
79403;SDS011;68858;48.642;9.142;2024-03-23T07:27:04;0.97;;;0.50;;
79403;SDS011;68858;48.642;9.142;2024-03-23T07:29:29;0.40;;;0.40;;
79403;SDS011;68858;48.642;9.142;2024-03-23T07:31:54;0.87;;;0.80;;
79403;SDS011;68858;48.642;9.142;2024-03-23T07:34:20;0.93;;;0.40;;
79403;SDS011;68858;48.642;9.142;2024-03-23T07:36:45;0.40;;;0.40;;
79403;SDS011;68858;48.642;9.142;2024-03-23T07:39:10;1.13;;;0.67;;
79403;SDS011;68858;48.642;9.142;2024-03-23T07:41:36;1.03;;;0.70;;
79403;SDS011;68858;48.642;9.142;2024-03-23T07:44:01;0.47;;;0.47;;
79403;SDS011;68858;48.642;9.142;2024-03-23T07:46:27;0.57;;;0.53;;
79403;SDS011;68858;48.642;9.142;2024-03-23T07:48:52;0.93;;;0.80;;
79403;SDS011;68858;48.642;9.142;2024-03-23T07:51:19;0.50;;;0.50;;
79403;SDS011;68858;48.642;9.142;2024-03-23T07:53:46;0.30;;;0.30;;
79403;SDS011;68858;48.642;9.142;2024-03-23T07:56:13;3.10;;;2.40;;
79403;SDS011;68858;48.642;9.142;2024-03-23T07:58:40;0.50;;;0.50;;
79403;SDS011;68858;48.642;9.142;2024-03-23T08:01:08;0.63;;;0.37;;
79403;SDS011;68858;48.642;9.142;2024-03-23T08:03:35;0.97;;;0.20;;
79403;SDS011;68858;48.642;9.142;2024-03-23T08:06:08;0.50;;;0.40;;
79403;SDS011;68858;48.642;9.142;2024-03-23T08:08:34;0.43;;;0.40;;
79403;SDS011;68858;48.642;9.142;2024-03-23T08:11:00;1.70;;;1.50;;
79403;SDS011;68858;48.642;9.142;2024-03-23T08:13:26;0.73;;;0.70;;
79403;SDS011;68858;48.642;9.142;2024-03-23T08:15:51;0.30;;;0.30;;
79403;SDS011;68858;48.642;9.142;2024-03-23T08:18:16;0.47;;;0.30;;
79403;SDS011;68858;48.642;9.142;2024-03-23T08:20:42;0.23;;;0.23;;
79403;SDS011;68858;48.642;9.142;2024-03-23T08:23:07;0.40;;;0.40;;
79403;SDS011;68858;48.642;9.142;2024-03-23T08:25:33;1.20;;;1.07;;
79403;SDS011;68858;48.642;9.142;2024-03-23T08:27:59;0.70;;;0.60;;
79403;SDS011;68858;48.642;9.142;2024-03-23T08:30:24;0.50;;;0.50;;
79403;SDS011;68858;48.642;9.142;2024-03-23T08:32:50;0.80;;;0.80;;
79403;SDS011;68858;48.642;9.142;2024-03-23T08:35:15;1.50;;;1.10;;
79403;SDS011;68858;48.642;9.142;2024-03-23T08:37:41;1.90;;;1.23;;
79403;SDS011;68858;48.642;9.142;2024-03-23T08:40:06;3.73;;;1.50;;
79403;SDS011;68858;48.642;9.142;2024-03-23T08:42:33;1.47;;;1.20;;
79403;SDS011;68858;48.642;9.142;2024-03-23T08:44:58;3.03;;;1.30;;
79403;SDS011;68858;48.642;9.142;2024-03-23T08:47:24;2.00;;;1.07;;
79403;SDS011;68858;48.642;9.142;2024-03-23T08:49:49;1.23;;;0.90;;
79403;SDS011;68858;48.642;9.142;2024-03-23T08:52:14;2.23;;;1.27;;
79403;SDS011;68858;48.642;9.142;2024-03-23T08:54:40;1.57;;;1.30;;
79403;SDS011;68858;48.642;9.142;2024-03-23T08:57:05;1.80;;;1.47;;
79403;SDS011;68858;48.642;9.142;2024-03-23T08:59:32;1.43;;;1.10;;
79403;SDS011;68858;48.642;9.142;2024-03-23T09:01:57;2.40;;;1.20;;
79403;SDS011;68858;48.642;9.142;2024-03-23T09:04:22;2.30;;;1.57;;
79403;SDS011;68858;48.642;9.142;2024-03-23T09:06:48;3.00;;;1.27;;
79403;SDS011;68858;48.642;9.142;2024-03-23T09:09:13;2.40;;;1.27;;
79403;SDS011;68858;48.642;9.142;2024-03-23T09:11:38;2.97;;;1.70;;
79403;SDS011;68858;48.642;9.142;2024-03-23T09:14:03;2.60;;;1.80;;
79403;SDS011;68858;48.642;9.142;2024-03-23T09:16:29;4.37;;;2.10;;
79403;SDS011;68858;48.642;9.142;2024-03-23T09:18:54;3.63;;;2.40;;
79403;SDS011;68858;48.642;9.142;2024-03-23T09:21:19;2.60;;;2.20;;
79403;SDS011;68858;48.642;9.142;2024-03-23T09:23:45;4.03;;;2.27;;
79403;SDS011;68858;48.642;9.142;2024-03-23T09:26:10;3.67;;;2.30;;
79403;SDS011;68858;48.642;9.142;2024-03-23T09:28:36;5.43;;;2.17;;
79403;SDS011;68858;48.642;9.142;2024-03-23T09:31:08;3.73;;;2.30;;
79403;SDS011;68858;48.642;9.142;2024-03-23T09:33:34;4.03;;;2.50;;
79403;SDS011;68858;48.642;9.142;2024-03-23T09:36:03;3.23;;;2.27;;
79403;SDS011;68858;48.642;9.142;2024-03-23T09:38:29;4.20;;;2.27;;
79403;SDS011;68858;48.642;9.142;2024-03-23T09:40:54;4.70;;;2.90;;
79403;SDS011;68858;48.642;9.142;2024-03-23T09:43:20;3.57;;;2.40;;
79403;SDS011;68858;48.642;9.142;2024-03-23T09:45:45;3.53;;;2.40;;
79403;SDS011;68858;48.642;9.142;2024-03-23T09:48:11;3.00;;;2.70;;
79403;SDS011;68858;48.642;9.142;2024-03-23T09:50:40;4.60;;;2.90;;
79403;SDS011;68858;48.642;9.142;2024-03-23T09:53:09;5.10;;;2.57;;
79403;SDS011;68858;48.642;9.142;2024-03-23T09:55:36;3.53;;;2.80;;
79403;SDS011;68858;48.642;9.142;2024-03-23T09:58:02;5.77;;;3.37;;
79403;SDS011;68858;48.642;9.142;2024-03-23T10:00:27;5.33;;;3.03;;
79403;SDS011;68858;48.642;9.142;2024-03-23T10:02:56;4.73;;;2.80;;
79403;SDS011;68858;48.642;9.142;2024-03-23T10:05:26;4.07;;;2.70;;
79403;SDS011;68858;48.642;9.142;2024-03-23T10:07:52;5.93;;;3.03;;
79403;SDS011;68858;48.642;9.142;2024-03-23T10:10:18;4.47;;;2.80;;
79403;SDS011;68858;48.642;9.142;2024-03-23T10:12:43;4.63;;;2.50;;
79403;SDS011;68858;48.642;9.142;2024-03-23T10:15:15;4.63;;;2.93;;
79403;SDS011;68858;48.642;9.142;2024-03-23T10:17:43;5.67;;;2.70;;
79403;SDS011;68858;48.642;9.142;2024-03-23T10:20:09;3.20;;;2.53;;
79403;SDS011;68858;48.642;9.142;2024-03-23T10:22:37;5.03;;;3.00;;
79403;SDS011;68858;48.642;9.142;2024-03-23T10:25:07;3.03;;;2.63;;
79403;SDS011;68858;48.642;9.142;2024-03-23T10:27:33;4.13;;;2.70;;
79403;SDS011;68858;48.642;9.142;2024-03-23T10:30:07;4.37;;;2.70;;
79403;SDS011;68858;48.642;9.142;2024-03-23T10:32:33;4.97;;;3.23;;
79403;SDS011;68858;48.642;9.142;2024-03-23T10:35:13;4.17;;;2.50;;
79403;SDS011;68858;48.642;9.142;2024-03-23T10:37:39;3.80;;;2.90;;
79403;SDS011;68858;48.642;9.142;2024-03-23T10:40:05;5.50;;;3.20;;
79403;SDS011;68858;48.642;9.142;2024-03-23T10:42:31;4.20;;;2.87;;
79403;SDS011;68858;48.642;9.142;2024-03-23T10:44:58;5.30;;;2.77;;
79403;SDS011;68858;48.642;9.142;2024-03-23T10:47:24;7.57;;;3.83;;
79403;SDS011;68858;48.642;9.142;2024-03-23T10:49:49;5.43;;;2.90;;
79403;SDS011;68858;48.642;9.142;2024-03-23T10:52:15;6.43;;;3.40;;
79403;SDS011;68858;48.642;9.142;2024-03-23T10:54:40;4.00;;;2.90;;
79403;SDS011;68858;48.642;9.142;2024-03-23T10:57:08;3.77;;;2.17;;
79403;SDS011;68858;48.642;9.142;2024-03-23T10:59:36;5.23;;;2.90;;
79403;SDS011;68858;48.642;9.142;2024-03-23T11:02:02;3.63;;;2.30;;
79403;SDS011;68858;48.642;9.142;2024-03-23T11:04:30;3.77;;;2.90;;
79403;SDS011;68858;48.642;9.142;2024-03-23T11:06:56;2.80;;;1.90;;
79403;SDS011;68858;48.642;9.142;2024-03-23T11:09:40;3.90;;;2.07;;
79403;SDS011;68858;48.642;9.142;2024-03-23T11:17:25;3.03;;;2.23;;
79403;SDS011;68858;48.642;9.142;2024-03-23T11:20:00;4.33;;;2.50;;
79403;SDS011;68858;48.642;9.142;2024-03-23T11:22:42;3.43;;;2.10;;
79403;SDS011;68858;48.642;9.142;2024-03-23T11:25:24;4.43;;;2.00;;
79403;SDS011;68858;48.642;9.142;2024-03-23T11:28:09;2.57;;;2.20;;
79403;SDS011;68858;48.642;9.142;2024-03-23T11:30:36;5.27;;;2.23;;
79403;SDS011;68858;48.642;9.142;2024-03-23T11:33:03;3.27;;;2.10;;
79403;SDS011;68858;48.642;9.142;2024-03-23T11:35:33;5.17;;;2.13;;
79403;SDS011;68858;48.642;9.142;2024-03-23T11:38:12;3.40;;;1.93;;
79403;SDS011;68858;48.642;9.142;2024-03-23T11:40:45;3.23;;;1.83;;
79403;SDS011;68858;48.642;9.142;2024-03-23T11:43:17;3.83;;;1.60;;
79403;SDS011;68858;48.642;9.142;2024-03-23T11:45:47;4.40;;;1.70;;
79403;SDS011;68858;48.642;9.142;2024-03-23T11:48:17;4.17;;;1.90;;
79403;SDS011;68858;48.642;9.142;2024-03-23T11:50:44;3.60;;;2.03;;
79403;SDS011;68858;48.642;9.142;2024-03-23T11:55:49;2.77;;;1.57;;
79403;SDS011;68858;48.642;9.142;2024-03-23T11:58:16;2.10;;;1.73;;
79403;SDS011;68858;48.642;9.142;2024-03-23T12:00:43;6.13;;;2.10;;
79403;SDS011;68858;48.642;9.142;2024-03-23T12:03:16;3.80;;;1.90;;
79403;SDS011;68858;48.642;9.142;2024-03-23T12:05:41;4.23;;;2.20;;
79403;SDS011;68858;48.642;9.142;2024-03-23T12:10:44;3.00;;;1.67;;
79403;SDS011;68858;48.642;9.142;2024-03-23T12:13:11;3.37;;;1.90;;
79403;SDS011;68858;48.642;9.142;2024-03-23T12:15:40;3.50;;;1.97;;
79403;SDS011;68858;48.642;9.142;2024-03-23T12:18:06;6.30;;;1.93;;
79403;SDS011;68858;48.642;9.142;2024-03-23T12:20:34;6.10;;;2.20;;
79403;SDS011;68858;48.642;9.142;2024-03-23T12:23:12;4.07;;;1.87;;
79403;SDS011;68858;48.642;9.142;2024-03-23T12:25:40;4.53;;;2.10;;
79403;SDS011;68858;48.642;9.142;2024-03-23T12:28:06;3.67;;;1.83;;
79403;SDS011;68858;48.642;9.142;2024-03-23T12:30:32;5.30;;;2.57;;
79403;SDS011;68858;48.642;9.142;2024-03-23T12:32:59;6.93;;;2.13;;
79403;SDS011;68858;48.642;9.142;2024-03-23T12:35:24;8.73;;;2.50;;
79403;SDS011;68858;48.642;9.142;2024-03-23T12:37:49;5.30;;;2.53;;
79403;SDS011;68858;48.642;9.142;2024-03-23T12:40:14;6.13;;;2.33;;
79403;SDS011;68858;48.642;9.142;2024-03-23T12:42:40;5.93;;;2.60;;
79403;SDS011;68858;48.642;9.142;2024-03-23T12:45:05;5.40;;;2.23;;
79403;SDS011;68858;48.642;9.142;2024-03-23T12:47:31;6.10;;;2.47;;
79403;SDS011;68858;48.642;9.142;2024-03-23T12:49:56;7.20;;;2.20;;
79403;SDS011;68858;48.642;9.142;2024-03-23T12:52:21;5.43;;;2.70;;
79403;SDS011;68858;48.642;9.142;2024-03-23T12:54:49;9.07;;;2.87;;
79403;SDS011;68858;48.642;9.142;2024-03-23T12:57:14;6.27;;;2.70;;
79403;SDS011;68858;48.642;9.142;2024-03-23T12:59:39;6.70;;;2.90;;
79403;SDS011;68858;48.642;9.142;2024-03-23T13:02:05;5.13;;;2.57;;
79403;SDS011;68858;48.642;9.142;2024-03-23T13:04:31;6.40;;;2.70;;
79403;SDS011;68858;48.642;9.142;2024-03-23T13:06:56;3.10;;;2.40;;
79403;SDS011;68858;48.642;9.142;2024-03-23T13:09:22;6.40;;;2.67;;
79403;SDS011;68858;48.642;9.142;2024-03-23T13:11:47;4.77;;;2.30;;
79403;SDS011;68858;48.642;9.142;2024-03-23T13:14:12;4.63;;;2.27;;
79403;SDS011;68858;48.642;9.142;2024-03-23T13:16:41;3.73;;;2.33;;
79403;SDS011;68858;48.642;9.142;2024-03-23T13:19:06;6.50;;;2.87;;
79403;SDS011;68858;48.642;9.142;2024-03-23T13:21:32;5.03;;;2.07;;
79403;SDS011;68858;48.642;9.142;2024-03-23T13:23:57;2.73;;;1.40;;
79403;SDS011;68858;48.642;9.142;2024-03-23T13:26:22;1.93;;;1.17;;
79403;SDS011;68858;48.642;9.142;2024-03-23T13:28:48;2.10;;;1.00;;
79403;SDS011;68858;48.642;9.142;2024-03-23T13:31:13;2.50;;;1.13;;
79403;SDS011;68858;48.642;9.142;2024-03-23T13:33:38;2.43;;;1.00;;
79403;SDS011;68858;48.642;9.142;2024-03-23T13:36:04;1.90;;;1.10;;
79403;SDS011;68858;48.642;9.142;2024-03-23T13:38:30;3.00;;;0.90;;
79403;SDS011;68858;48.642;9.142;2024-03-23T13:40:56;1.50;;;0.80;;
79403;SDS011;68858;48.642;9.142;2024-03-23T13:43:22;2.33;;;1.00;;
79403;SDS011;68858;48.642;9.142;2024-03-23T13:45:48;2.47;;;1.20;;
79403;SDS011;68858;48.642;9.142;2024-03-23T13:48:15;3.27;;;1.30;;
79403;SDS011;68858;48.642;9.142;2024-03-23T13:50:41;2.57;;;1.27;;
79403;SDS011;68858;48.642;9.142;2024-03-23T13:53:06;2.73;;;1.23;;
79403;SDS011;68858;48.642;9.142;2024-03-23T13:55:33;2.93;;;1.40;;
79403;SDS011;68858;48.642;9.142;2024-03-23T13:57:58;1.73;;;1.10;;
79403;SDS011;68858;48.642;9.142;2024-03-23T14:00:23;1.90;;;1.33;;
79403;SDS011;68858;48.642;9.142;2024-03-23T14:02:49;3.17;;;1.27;;
79403;SDS011;68858;48.642;9.142;2024-03-23T14:05:14;2.73;;;1.30;;
79403;SDS011;68858;48.642;9.142;2024-03-23T14:07:39;1.93;;;1.33;;
79403;SDS011;68858;48.642;9.142;2024-03-23T14:10:05;2.97;;;1.40;;
79403;SDS011;68858;48.642;9.142;2024-03-23T14:12:37;2.63;;;1.80;;
79403;SDS011;68858;48.642;9.142;2024-03-23T14:15:05;2.67;;;1.30;;
79403;SDS011;68858;48.642;9.142;2024-03-23T14:17:30;2.50;;;1.40;;
79403;SDS011;68858;48.642;9.142;2024-03-23T14:19:56;3.30;;;1.60;;
79403;SDS011;68858;48.642;9.142;2024-03-23T14:22:25;3.97;;;1.60;;
79403;SDS011;68858;48.642;9.142;2024-03-23T14:24:51;3.23;;;1.60;;
79403;SDS011;68858;48.642;9.142;2024-03-23T14:27:17;6.83;;;1.80;;
79403;SDS011;68858;48.642;9.142;2024-03-23T14:29:45;4.10;;;2.10;;
79403;SDS011;68858;48.642;9.142;2024-03-23T14:32:11;2.87;;;1.70;;
79403;SDS011;68858;48.642;9.142;2024-03-23T14:34:36;3.37;;;1.70;;
79403;SDS011;68858;48.642;9.142;2024-03-23T14:37:02;2.53;;;1.50;;
79403;SDS011;68858;48.642;9.142;2024-03-23T14:39:28;4.07;;;1.70;;
79403;SDS011;68858;48.642;9.142;2024-03-23T14:41:53;5.80;;;2.00;;
79403;SDS011;68858;48.642;9.142;2024-03-23T14:44:19;3.07;;;1.93;;
79403;SDS011;68858;48.642;9.142;2024-03-23T14:46:44;4.93;;;1.97;;
79403;SDS011;68858;48.642;9.142;2024-03-23T14:49:14;2.60;;;1.90;;
79403;SDS011;68858;48.642;9.142;2024-03-23T14:51:41;2.50;;;1.50;;
79403;SDS011;68858;48.642;9.142;2024-03-23T14:54:06;1.97;;;1.30;;
79403;SDS011;68858;48.642;9.142;2024-03-23T14:56:32;2.50;;;1.40;;
79403;SDS011;68858;48.642;9.142;2024-03-23T14:58:57;2.57;;;1.40;;
79403;SDS011;68858;48.642;9.142;2024-03-23T15:01:22;1.80;;;1.30;;
79403;SDS011;68858;48.642;9.142;2024-03-23T15:03:48;2.00;;;1.23;;
79403;SDS011;68858;48.642;9.142;2024-03-23T15:06:13;2.70;;;1.37;;
79403;SDS011;68858;48.642;9.142;2024-03-23T15:08:39;2.23;;;1.50;;
79403;SDS011;68858;48.642;9.142;2024-03-23T15:11:07;3.07;;;1.47;;
79403;SDS011;68858;48.642;9.142;2024-03-23T15:13:33;4.23;;;2.33;;
79403;SDS011;68858;48.642;9.142;2024-03-23T15:16:02;4.00;;;2.00;;
79403;SDS011;68858;48.642;9.142;2024-03-23T15:18:28;2.97;;;1.60;;
79403;SDS011;68858;48.642;9.142;2024-03-23T15:20:55;3.47;;;1.40;;
79403;SDS011;68858;48.642;9.142;2024-03-23T15:23:21;2.43;;;1.30;;
79403;SDS011;68858;48.642;9.142;2024-03-23T15:25:56;2.53;;;1.13;;
79403;SDS011;68858;48.642;9.142;2024-03-23T15:28:28;3.00;;;1.40;;
79403;SDS011;68858;48.642;9.142;2024-03-23T15:31:08;2.60;;;1.30;;
79403;SDS011;68858;48.642;9.142;2024-03-23T15:33:36;2.20;;;1.20;;
79403;SDS011;68858;48.642;9.142;2024-03-23T15:36:02;2.80;;;1.30;;
79403;SDS011;68858;48.642;9.142;2024-03-23T15:38:28;3.10;;;1.30;;
79403;SDS011;68858;48.642;9.142;2024-03-23T15:40:56;1.93;;;1.47;;
79403;SDS011;68858;48.642;9.142;2024-03-23T15:43:22;2.20;;;1.40;;
79403;SDS011;68858;48.642;9.142;2024-03-23T15:45:54;3.63;;;1.47;;
79403;SDS011;68858;48.642;9.142;2024-03-23T15:48:20;2.37;;;1.23;;